RJFS

Saga Airport

Airport
ICAO code
RJFS
IATA Code
HSG
Summary
ICAO Region
APAC
ICAO Territory
Location

Kawasoe, Saga Prefecture

Serving
Saga
Elevation
6 ft
Coordinates
33° 9' 12" N , 130° 18' 11" E
KCC
Metar
Observation
RJFS 030700Z VRB04KT 9999 FEW035 SCT/// 10/01 Q1018
Station
Saga Airport
Date/Time
2023-02-03 07:00:00
Wind speed
04 kts
Lowest cloud amount
few clouds
Temperature
10°C
Dew point
1°C
Humidity
53%
QNH
1018 hPa
Weather condition
n/a

Saga Airport is an airport in the Kawasoe area of Saga, Saga Prefecture, Japan. It also uses the unofficial name Kyushu Saga International Airport.

Climatology

Humid Sub-tropical climate (Köppen climate classification Cfa)

Runways

Designator Length Width Surface Rops
11/29 2000 45 ASP Yes/Yes

Airport map

Aerial View

SKYbrary Partners:

Safety knowledge contributed by: